sensor_id;sensor_type;location;lat;lon;timestamp;pressure;altitude;pressure_sealevel;temperature;humidity
43257;BME280;28860;43.212;27.934;2023-04-06T10:22:34;100689.53;;;16.04;32.55
43257;BME280;28860;43.212;27.934;2023-04-06T10:25:01;100680.16;;;15.75;32.83
43257;BME280;28860;43.212;27.934;2023-04-06T10:27:30;100689.66;;;15.58;33.29
43257;BME280;28860;43.212;27.934;2023-04-06T10:30:03;100679.34;;;15.52;33.41
43257;BME280;28860;43.212;27.934;2023-04-06T10:32:34;100679.53;;;15.71;33.09
43257;BME280;28860;43.212;27.934;2023-04-06T10:35:11;100689.50;;;15.71;33.19
43257;BME280;28860;43.212;27.934;2023-04-06T10:38:00;100668.22;;;15.78;33.02
43257;BME280;28860;43.212;27.934;2023-04-06T10:40:27;100681.41;;;15.60;33.27
43257;BME280;28860;43.212;27.934;2023-04-06T10:42:54;100690.34;;;15.71;33.46
43257;BME280;28860;43.212;27.934;2023-04-06T10:45:25;100660.28;;;15.53;33.27
43257;BME280;28860;43.212;27.934;2023-04-06T10:47:53;100657.25;;;15.35;33.53
43257;BME280;28860;43.212;27.934;2023-04-06T10:50:19;100669.72;;;15.70;33.50
43257;BME280;28860;43.212;27.934;2023-04-06T10:52:46;100652.69;;;15.36;34.10
43257;BME280;28860;43.212;27.934;2023-04-06T10:55:15;100659.34;;;15.43;33.92
43257;BME280;28860;43.212;27.934;2023-04-06T10:57:42;100647.72;;;15.20;34.04
43257;BME280;28860;43.212;27.934;2023-04-06T11:00:11;100651.22;;;15.43;33.63
43257;BME280;28860;43.212;27.934;2023-04-06T11:02:37;100656.88;;;15.84;32.93
43257;BME280;28860;43.212;27.934;2023-04-06T11:05:03;100662.69;;;15.79;32.88
43257;BME280;28860;43.212;27.934;2023-04-06T11:07:29;100668.22;;;15.78;33.20
43257;BME280;28860;43.212;27.934;2023-04-06T11:09:58;100666.00;;;15.83;33.41
43257;BME280;28860;43.212;27.934;2023-04-06T11:12:25;100645.34;;;15.93;33.08
43257;BME280;28860;43.212;27.934;2023-04-06T11:15:03;100658.44;;;15.65;33.39
43257;BME280;28860;43.212;27.934;2023-04-06T11:17:37;100661.59;;;15.70;33.13
43257;BME280;28860;43.212;27.934;2023-04-06T11:25:37;100681.97;;;15.86;32.76
43257;BME280;28860;43.212;27.934;2023-04-06T11:28:06;100659.31;;;15.98;32.64
43257;BME280;28860;43.212;27.934;2023-04-06T11:30:32;100663.13;;;15.84;33.06
43257;BME280;28860;43.212;27.934;2023-04-06T11:33:03;100655.44;;;15.80;33.10
43257;BME280;28860;43.212;27.934;2023-04-06T11:35:31;100657.41;;;16.10;32.89
43257;BME280;28860;43.212;27.934;2023-04-06T11:37:58;100628.03;;;16.06;32.87
43257;BME280;28860;43.212;27.934;2023-04-06T11:40:31;100631.03;;;16.24;32.68
43257;BME280;28860;43.212;27.934;2023-04-06T11:43:04;100667.16;;;16.55;32.27
43257;BME280;28860;43.212;27.934;2023-04-06T11:45:44;100645.00;;;16.29;32.07
43257;BME280;28860;43.212;27.934;2023-04-06T11:48:20;100613.75;;;16.15;32.37
43257;BME280;28860;43.212;27.934;2023-04-06T11:50:55;100623.53;;;16.27;32.28
43257;BME280;28860;43.212;27.934;2023-04-06T11:53:22;100634.94;;;16.52;32.07
43257;BME280;28860;43.212;27.934;2023-04-06T11:55:47;100649.19;;;16.54;32.04
43257;BME280;28860;43.212;27.934;2023-04-06T11:58:13;100631.31;;;16.42;32.05
43257;BME280;28860;43.212;27.934;2023-04-06T12:00:40;100610.00;;;16.27;32.44
43257;BME280;28860;43.212;27.934;2023-04-06T12:03:11;100620.75;;;16.39;32.32
43257;BME280;28860;43.212;27.934;2023-04-06T12:05:37;100627.72;;;16.63;31.87
43257;BME280;28860;43.212;27.934;2023-04-06T12:08:05;100620.56;;;16.93;32.04
43257;BME280;28860;43.212;27.934;2023-04-06T12:10:31;100614.31;;;16.92;31.65
43257;BME280;28860;43.212;27.934;2023-04-06T12:12:57;100648.81;;;16.90;31.47
43257;BME280;28860;43.212;27.934;2023-04-06T12:15:23;100619.06;;;16.69;31.41
43257;BME280;28860;43.212;27.934;2023-04-06T12:17:49;100618.16;;;16.37;30.96
43257;BME280;28860;43.212;27.934;2023-04-06T12:20:17;100615.84;;;16.11;31.86
43257;BME280;28860;43.212;27.934;2023-04-06T12:22:46;100632.06;;;16.54;31.53
43257;BME280;28860;43.212;27.934;2023-04-06T12:25:18;100634.78;;;16.54;31.42
43257;BME280;28860;43.212;27.934;2023-04-06T12:27:46;100619.69;;;16.51;31.62
43257;BME280;28860;43.212;27.934;2023-04-06T12:30:15;100646.22;;;16.89;31.53
43257;BME280;28860;43.212;27.934;2023-04-06T12:32:41;100608.75;;;16.63;31.74
43257;BME280;28860;43.212;27.934;2023-04-06T12:35:07;100615.88;;;16.64;31.41
43257;BME280;28860;43.212;27.934;2023-04-06T12:37:34;100640.09;;;16.87;31.27
43257;BME280;28860;43.212;27.934;2023-04-06T12:40:00;100641.69;;;16.37;31.91
43257;BME280;28860;43.212;27.934;2023-04-06T12:42:26;100629.13;;;16.36;32.04
43257;BME280;28860;43.212;27.934;2023-04-06T12:44:52;100598.84;;;16.21;32.12
43257;BME280;28860;43.212;27.934;2023-04-06T12:47:18;100622.25;;;16.32;31.90
43257;BME280;28860;43.212;27.934;2023-04-06T12:49:44;100633.28;;;16.61;31.81
43257;BME280;28860;43.212;27.934;2023-04-06T12:52:41;100652.88;;;16.75;31.71
43257;BME280;28860;43.212;27.934;2023-04-06T12:55:08;100641.38;;;16.82;31.58
43257;BME280;28860;43.212;27.934;2023-04-06T12:57:34;100633.59;;;16.68;31.59
43257;BME280;28860;43.212;27.934;2023-04-06T13:00:03;100658.75;;;16.59;31.73
43257;BME280;28860;43.212;27.934;2023-04-06T13:02:33;100629.41;;;16.64;31.55
43257;BME280;28860;43.212;27.934;2023-04-06T13:04:59;100606.16;;;16.51;31.62
43257;BME280;28860;43.212;27.934;2023-04-06T13:07:28;100656.47;;;16.85;31.07
43257;BME280;28860;43.212;27.934;2023-04-06T13:09:57;100633.03;;;16.74;31.14
43257;BME280;28860;43.212;27.934;2023-04-06T13:12:23;100618.94;;;16.49;31.38
43257;BME280;28860;43.212;27.934;2023-04-06T13:14:49;100633.31;;;16.71;31.50
43257;BME280;28860;43.212;27.934;2023-04-06T13:17:18;100620.22;;;16.76;30.98
43257;BME280;28860;43.212;27.934;2023-04-06T13:19:44;100616.91;;;16.73;31.19
43257;BME280;28860;43.212;27.934;2023-04-06T13:22:09;100609.13;;;16.79;31.27
43257;BME280;28860;43.212;27.934;2023-04-06T13:24:35;100622.84;;;16.88;31.04
43257;BME280;28860;43.212;27.934;2023-04-06T13:27:01;100641.47;;;17.02;31.05
43257;BME280;28860;43.212;27.934;2023-04-06T13:29:30;100618.94;;;16.80;31.18
43257;BME280;28860;43.212;27.934;2023-04-06T13:31:56;100623.13;;;16.84;31.21
43257;BME280;28860;43.212;27.934;2023-04-06T13:34:22;100615.72;;;16.87;31.31
43257;BME280;28860;43.212;27.934;2023-04-06T13:36:48;100602.09;;;16.98;31.86
43257;BME280;28860;43.212;27.934;2023-04-06T13:39:26;100608.69;;;17.05;34.99
43257;BME280;28860;43.212;27.934;2023-04-06T13:41:53;100613.25;;;17.05;37.32
43257;BME280;28860;43.212;27.934;2023-04-06T13:44:27;100618.09;;;17.01;38.92
43257;BME280;28860;43.212;27.934;2023-04-06T13:46:55;100646.34;;;17.08;39.42
43257;BME280;28860;43.212;27.934;2023-04-06T13:49:21;100621.63;;;16.70;40.30
43257;BME280;28860;43.212;27.934;2023-04-06T13:51:46;100607.69;;;16.75;40.26
43257;BME280;28860;43.212;27.934;2023-04-06T13:54:12;100627.72;;;16.94;39.32
43257;BME280;28860;43.212;27.934;2023-04-06T13:56:38;100634.09;;;16.83;39.77
43257;BME280;28860;43.212;27.934;2023-04-06T13:59:04;100632.56;;;16.90;39.52
43257;BME280;28860;43.212;27.934;2023-04-06T14:01:30;100620.56;;;16.93;39.97
43257;BME280;28860;43.212;27.934;2023-04-06T14:03:55;100620.00;;;16.89;39.83
43257;BME280;28860;43.212;27.934;2023-04-06T14:06:21;100628.97;;;16.90;40.46
43257;BME280;28860;43.212;27.934;2023-04-06T14:08:47;100613.28;;;16.83;40.31
43257;BME280;28860;43.212;27.934;2023-04-06T14:11:13;100651.75;;;17.08;40.18
43257;BME280;28860;43.212;27.934;2023-04-06T14:13:42;100629.78;;;16.80;40.95
43257;BME280;28860;43.212;27.934;2023-04-06T14:16:08;100597.94;;;16.63;41.03
43257;BME280;28860;43.212;27.934;2023-04-06T14:18:34;100597.66;;;16.66;41.36
43257;BME280;28860;43.212;27.934;2023-04-06T14:21:00;100613.72;;;16.58;41.45
43257;BME280;28860;43.212;27.934;2023-04-06T14:23:27;100624.88;;;16.64;41.38
43257;BME280;28860;43.212;27.934;2023-04-06T14:26:04;100610.38;;;16.44;41.40
43257;BME280;28860;43.212;27.934;2023-04-06T14:28:34;100611.28;;;16.54;40.74
43257;BME280;28860;43.212;27.934;2023-04-06T14:31:09;100626.47;;;16.67;41.35
43257;BME280;28860;43.212;27.934;2023-04-06T14:33:35;100624.34;;;16.49;41.65
43257;BME280;28860;43.212;27.934;2023-04-06T14:36:05;100618.69;;;16.52;41.69
43257;BME280;28860;43.212;27.934;2023-04-06T14:38:31;100623.56;;;16.59;41.27
43257;BME280;28860;43.212;27.934;2023-04-06T14:40:57;100610.41;;;16.54;41.20
43257;BME280;28860;43.212;27.934;2023-04-06T14:43:24;100614.72;;;16.57;41.14
43257;BME280;28860;43.212;27.934;2023-04-06T14:45:52;100629.75;;;16.70;41.41
43257;BME280;28860;43.212;27.934;2023-04-06T14:48:21;100631.06;;;16.76;41.21
43257;BME280;28860;43.212;27.934;2023-04-06T14:51:03;100611.66;;;16.71;41.37
43257;BME280;28860;43.212;27.934;2023-04-06T14:53:32;100629.94;;;16.79;41.39
43257;BME280;28860;43.212;27.934;2023-04-06T14:56:03;100617.22;;;16.79;41.23
43257;BME280;28860;43.212;27.934;2023-04-06T14:58:30;100641.53;;;16.91;41.37
43257;BME280;28860;43.212;27.934;2023-04-06T15:01:00;100606.25;;;16.71;41.38
43257;BME280;28860;43.212;27.934;2023-04-06T15:03:26;100604.53;;;16.70;41.28
43257;BME280;28860;43.212;27.934;2023-04-06T15:05:53;100625.13;;;16.82;41.51
43257;BME280;28860;43.212;27.934;2023-04-06T15:08:20;100620.69;;;16.81;41.21
43257;BME280;28860;43.212;27.934;2023-04-06T15:10:47;100631.59;;;16.70;41.82
43257;BME280;28860;43.212;27.934;2023-04-06T15:13:13;100622.75;;;16.68;41.42
43257;BME280;28860;43.212;27.934;2023-04-06T15:15:40;100614.44;;;16.60;41.58
43257;BME280;28860;43.212;27.934;2023-04-06T15:18:06;100633.59;;;16.68;41.75
43257;BME280;28860;43.212;27.934;2023-04-06T15:20:32;100637.03;;;16.70;41.70
43257;BME280;28860;43.212;27.934;2023-04-06T15:22:58;100648.13;;;16.67;41.91
43257;BME280;28860;43.212;27.934;2023-04-06T15:25:24;100627.81;;;16.51;41.73
43257;BME280;28860;43.212;27.934;2023-04-06T15:27:50;100632.03;;;16.44;42.07
43257;BME280;28860;43.212;27.934;2023-04-06T15:30:16;100645.28;;;16.47;42.36
43257;BME280;28860;43.212;27.934;2023-04-06T15:32:52;100620.81;;;16.27;42.71
43257;BME280;28860;43.212;27.934;2023-04-06T15:35:19;100625.97;;;16.31;42.72
43257;BME280;28860;43.212;27.934;2023-04-06T15:37:44;100649.38;;;16.41;42.78
43257;BME280;28860;43.212;27.934;2023-04-06T15:40:11;100646.75;;;16.09;43.62
43257;BME280;28860;43.212;27.934;2023-04-06T15:42:39;100660.16;;;16.32;43.29
43257;BME280;28860;43.212;27.934;2023-04-06T15:45:07;100665.22;;;16.25;43.21
43257;BME280;28860;43.212;27.934;2023-04-06T15:47:33;100644.28;;;16.06;43.62
43257;BME280;28860;43.212;27.934;2023-04-06T15:49:58;100662.06;;;16.20;43.38
43257;BME280;28860;43.212;27.934;2023-04-06T15:52:24;100673.00;;;16.18;43.39
43257;BME280;28860;43.212;27.934;2023-04-06T15:54:50;100677.97;;;16.13;43.80
43257;BME280;28860;43.212;27.934;2023-04-06T15:57:16;100671.59;;;16.03;43.69
43257;BME280;28860;43.212;27.934;2023-04-06T15:59:42;100668.53;;;15.84;44.33
43257;BME280;28860;43.212;27.934;2023-04-06T16:02:07;100659.97;;;15.79;44.55
43257;BME280;28860;43.212;27.934;2023-04-06T16:04:33;100680.25;;;15.85;44.60
43257;BME280;28860;43.212;27.934;2023-04-06T16:07:01;100675.81;;;15.84;44.70
43257;BME280;28860;43.212;27.934;2023-04-06T16:09:27;100689.06;;;15.87;44.57
43257;BME280;28860;43.212;27.934;2023-04-06T16:11:53;100690.78;;;15.88;44.68
43257;BME280;28860;43.212;27.934;2023-04-06T16:14:19;100688.84;;;15.90;44.62
43257;BME280;28860;43.212;27.934;2023-04-06T16:16:45;100699.44;;;15.93;44.75
43257;BME280;28860;43.212;27.934;2023-04-06T16:19:10;100683.47;;;15.79;44.64
43257;BME280;28860;43.212;27.934;2023-04-06T16:21:36;100714.41;;;15.86;44.67
43257;BME280;28860;43.212;27.934;2023-04-06T16:24:02;100680.28;;;15.62;44.84
43257;BME280;28860;43.212;27.934;2023-04-06T16:26:29;100691.81;;;15.76;44.86
43257;BME280;28860;43.212;27.934;2023-04-06T16:28:57;100686.41;;;15.76;44.86
43257;BME280;28860;43.212;27.934;2023-04-06T16:31:26;100681.78;;;15.55;45.11
43257;BME280;28860;43.212;27.934;2023-04-06T16:33:54;100678.09;;;15.67;44.78
43257;BME280;28860;43.212;27.934;2023-04-06T16:36:27;100698.94;;;15.77;44.65
43257;BME280;28860;43.212;27.934;2023-04-06T16:38:54;100692.06;;;15.73;44.71
43257;BME280;28860;43.212;27.934;2023-04-06T16:41:20;100704.59;;;15.74;44.66
43257;BME280;28860;43.212;27.934;2023-04-06T16:43:47;100708.28;;;15.84;44.73
43257;BME280;28860;43.212;27.934;2023-04-06T16:46:13;100722.63;;;15.84;44.77
43257;BME280;28860;43.212;27.934;2023-04-06T16:48:39;100722.06;;;15.81;45.32
43257;BME280;28860;43.212;27.934;2023-04-06T16:51:06;100720.69;;;15.87;45.01
43257;BME280;28860;43.212;27.934;2023-04-06T16:53:33;100718.34;;;15.82;44.87
43257;BME280;28860;43.212;27.934;2023-04-06T16:56:02;100744.91;;;15.99;44.74
43257;BME280;28860;43.212;27.934;2023-04-06T16:58:28;100725.59;;;15.81;44.86
43257;BME280;28860;43.212;27.934;2023-04-06T17:00:54;100732.34;;;15.87;44.69
43257;BME280;28860;43.212;27.934;2023-04-06T17:03:19;100712.72;;;15.74;44.83
43257;BME280;28860;43.212;27.934;2023-04-06T17:05:45;100731.88;;;15.82;44.78
43257;BME280;28860;43.212;27.934;2023-04-06T17:08:11;100747.50;;;15.90;44.90
43257;BME280;28860;43.212;27.934;2023-04-06T17:10:37;100752.41;;;15.96;44.62
43257;BME280;28860;43.212;27.934;2023-04-06T17:15:28;100732.88;;;15.81;44.48
43257;BME280;28860;43.212;27.934;2023-04-06T17:17:53;100740.84;;;15.82;44.74
43257;BME280;28860;43.212;27.934;2023-04-06T17:20:19;100726.88;;;15.66;44.81
43257;BME280;28860;43.212;27.934;2023-04-06T17:22:45;100727.72;;;15.66;44.93
43257;BME280;28860;43.212;27.934;2023-04-06T17:25:11;100742.72;;;15.70;44.90
43257;BME280;28860;43.212;27.934;2023-04-06T17:27:37;100764.44;;;15.80;44.91
43257;BME280;28860;43.212;27.934;2023-04-06T17:30:04;100738.91;;;15.62;44.96
43257;BME280;28860;43.212;27.934;2023-04-06T17:32:33;100743.34;;;15.63;45.00
43257;BME280;28860;43.212;27.934;2023-04-06T17:34:59;100739.75;;;15.62;44.90
43257;BME280;28860;43.212;27.934;2023-04-06T17:37:25;100737.56;;;15.56;44.73
43257;BME280;28860;43.212;27.934;2023-04-06T17:39:50;100747.13;;;15.60;44.92
43257;BME280;28860;43.212;27.934;2023-04-06T17:42:16;100783.16;;;15.72;44.87
43257;BME280;28860;43.212;27.934;2023-04-06T17:44:43;100753.78;;;15.56;44.93
43257;BME280;28860;43.212;27.934;2023-04-06T17:47:09;100759.44;;;15.53;44.99
43257;BME280;28860;43.212;27.934;2023-04-06T17:49:34;100780.09;;;15.65;45.10
43257;BME280;28860;43.212;27.934;2023-04-06T17:52:00;100761.63;;;15.48;45.30
43257;BME280;28860;43.212;27.934;2023-04-06T17:54:26;100766.31;;;15.46;45.42
43257;BME280;28860;43.212;27.934;2023-04-06T17:56:51;100767.91;;;15.48;45.13
43257;BME280;28860;43.212;27.934;2023-04-06T17:59:18;100765.09;;;15.38;45.67
43257;BME280;28860;43.212;27.934;2023-04-06T18:01:44;100778.84;;;15.47;45.67
43257;BME280;28860;43.212;27.934;2023-04-06T18:04:09;100753.19;;;15.30;45.74
43257;BME280;28860;43.212;27.934;2023-04-06T18:06:36;100782.78;;;15.42;45.91
43257;BME280;28860;43.212;27.934;2023-04-06T18:09:01;100772.47;;;15.36;45.60
43257;BME280;28860;43.212;27.934;2023-04-06T18:11:28;100794.31;;;15.45;45.91
43257;BME280;28860;43.212;27.934;2023-04-06T18:28:27;100815.72;;;15.36;46.41
43257;BME280;28860;43.212;27.934;2023-04-06T18:30:52;100815.94;;;15.33;46.35
43257;BME280;28860;43.212;27.934;2023-04-06T18:33:18;100815.94;;;15.33;46.34
43257;BME280;28860;43.212;27.934;2023-04-06T18:35:43;100818.41;;;15.25;46.30
43257;BME280;28860;43.212;27.934;2023-04-06T18:38:09;100829.69;;;15.30;46.29
43257;BME280;28860;43.212;27.934;2023-04-06T18:40:37;100828.72;;;15.31;46.15
43257;BME280;28860;43.212;27.934;2023-04-06T18:43:05;100808.09;;;15.19;46.16
43257;BME280;28860;43.212;27.934;2023-04-06T18:45:34;100803.78;;;15.16;46.18
43257;BME280;28860;43.212;27.934;2023-04-06T18:48:02;100801.44;;;15.11;46.12
43257;BME280;28860;43.212;27.934;2023-04-06T18:50:28;100796.28;;;15.08;46.12
43257;BME280;28860;43.212;27.934;2023-04-06T18:52:54;100812.63;;;15.18;46.12
43257;BME280;28860;43.212;27.934;2023-04-06T18:55:21;100819.63;;;15.21;46.13
43257;BME280;28860;43.212;27.934;2023-04-06T18:57:47;100796.50;;;15.05;46.10
43257;BME280;28860;43.212;27.934;2023-04-06T19:00:13;100810.03;;;15.05;46.34
43257;BME280;28860;43.212;27.934;2023-04-06T19:02:39;100806.56;;;15.03;46.28
43257;BME280;28860;43.212;27.934;2023-04-06T19:05:05;100823.16;;;15.10;46.41
43257;BME280;28860;43.212;27.934;2023-04-06T19:07:31;100811.94;;;15.03;46.54
43257;BME280;28860;43.212;27.934;2023-04-06T19:09:59;100803.59;;;14.95;46.62
43257;BME280;28860;43.212;27.934;2023-04-06T19:12:25;100814.66;;;15.03;46.48
43257;BME280;28860;43.212;27.934;2023-04-06T19:14:51;100805.31;;;14.96;46.32
43257;BME280;28860;43.212;27.934;2023-04-06T19:17:18;100827.22;;;15.04;46.66
43257;BME280;28860;43.212;27.934;2023-04-06T19:19:47;100818.34;;;15.02;46.58
43257;BME280;28860;43.212;27.934;2023-04-06T19:22:12;100808.50;;;14.90;46.47
43257;BME280;28860;43.212;27.934;2023-04-06T19:24:40;100817.75;;;14.98;46.33
43257;BME280;28860;43.212;27.934;2023-04-06T19:27:09;100813.03;;;14.89;46.32
43257;BME280;28860;43.212;27.934;2023-04-06T19:29:36;100806.41;;;14.82;46.47
43257;BME280;28860;43.212;27.934;2023-04-06T19:32:03;100814.84;;;14.77;46.66
43257;BME280;28860;43.212;27.934;2023-04-06T19:34:33;100815.44;;;14.81;46.42
43257;BME280;28860;43.212;27.934;2023-04-06T19:36:59;100860.31;;;14.95;46.95
43257;BME280;28860;43.212;27.934;2023-04-06T19:39:25;100830.91;;;14.79;46.68
43257;BME280;28860;43.212;27.934;2023-04-06T19:41:51;100843.44;;;14.80;46.80
43257;BME280;28860;43.212;27.934;2023-04-06T19:44:17;100859.28;;;14.84;46.71
43257;BME280;28860;43.212;27.934;2023-04-06T19:46:43;100842.25;;;14.71;47.17
43257;BME280;28860;43.212;27.934;2023-04-06T19:49:12;100830.22;;;14.64;46.94
43257;BME280;28860;43.212;27.934;2023-04-06T19:51:38;100853.06;;;14.71;47.07
43257;BME280;28860;43.212;27.934;2023-04-06T19:54:05;100832.94;;;14.64;47.15
43257;BME280;28860;43.212;27.934;2023-04-06T19:56:31;100835.63;;;14.64;46.70
43257;BME280;28860;43.212;27.934;2023-04-06T19:58:57;100827.53;;;14.64;47.01
43257;BME280;28860;43.212;27.934;2023-04-06T20:01:23;100869.44;;;14.81;46.92
43257;BME280;28860;43.212;27.934;2023-04-06T20:03:49;100848.34;;;14.75;46.93
43257;BME280;28860;43.212;27.934;2023-04-06T20:06:14;100846.72;;;14.72;46.99
43257;BME280;28860;43.212;27.934;2023-04-06T20:08:42;100827.00;;;14.58;46.76
43257;BME280;28860;43.212;27.934;2023-04-06T20:11:08;100842.75;;;14.65;46.63
43257;BME280;28860;43.212;27.934;2023-04-06T20:13:35;100860.84;;;14.76;46.82
43257;BME280;28860;43.212;27.934;2023-04-06T20:16:01;100869.06;;;14.74;46.79
43257;BME280;28860;43.212;27.934;2023-04-06T20:18:31;100835.47;;;14.54;46.71
43257;BME280;28860;43.212;27.934;2023-04-06T20:20:57;100879.41;;;14.80;46.66
43257;BME280;28860;43.212;27.934;2023-04-06T20:23:22;100855.50;;;14.63;46.57
43257;BME280;28860;43.212;27.934;2023-04-06T20:45:55;100898.78;;;14.61;46.44
43257;BME280;28860;43.212;27.934;2023-04-06T20:48:22;100886.59;;;14.55;46.45
43257;BME280;28860;43.212;27.934;2023-04-06T20:50:48;100899.53;;;14.63;46.47
43257;BME280;28860;43.212;27.934;2023-04-06T20:53:15;100871.31;;;14.43;46.50
43257;BME280;28860;43.212;27.934;2023-04-06T20:55:40;100901.50;;;14.61;46.37
43257;BME280;28860;43.212;27.934;2023-04-06T20:58:06;100886.75;;;14.54;46.16
43257;BME280;28860;43.212;27.934;2023-04-06T21:00:32;100885.97;;;14.52;45.93
43257;BME280;28860;43.212;27.934;2023-04-06T21:02:57;100908.84;;;14.59;45.74
43257;BME280;28860;43.212;27.934;2023-04-06T21:05:23;100878.69;;;14.41;45.60
43257;BME280;28860;43.212;27.934;2023-04-06T21:07:49;100873.75;;;14.35;45.30
43257;BME280;28860;43.212;27.934;2023-04-06T21:10:14;100895.91;;;14.51;45.38
43257;BME280;28860;43.212;27.934;2023-04-06T21:12:40;100874.59;;;14.35;45.00
43257;BME280;28860;43.212;27.934;2023-04-06T21:15:06;100890.16;;;14.32;45.01
43257;BME280;28860;43.212;27.934;2023-04-06T21:17:32;100882.81;;;14.34;44.50
43257;BME280;28860;43.212;27.934;2023-04-06T21:19:58;100895.34;;;14.35;44.73
43257;BME280;28860;43.212;27.934;2023-04-06T21:22:24;100888.44;;;14.31;44.51
43257;BME280;28860;43.212;27.934;2023-04-06T21:24:49;100894.19;;;14.26;44.62
43257;BME280;28860;43.212;27.934;2023-04-06T21:27:15;100878.75;;;14.15;44.54
43257;BME280;28860;43.212;27.934;2023-04-06T21:29:41;100915.38;;;14.43;44.43
43257;BME280;28860;43.212;27.934;2023-04-06T21:32:06;100895.34;;;14.35;44.28
43257;BME280;28860;43.212;27.934;2023-04-06T21:34:32;100878.31;;;14.21;43.93
43257;BME280;28860;43.212;27.934;2023-04-06T21:36:58;100897.28;;;14.33;44.05
43257;BME280;28860;43.212;27.934;2023-04-06T21:39:24;100899.19;;;14.43;43.67
43257;BME280;28860;43.212;27.934;2023-04-06T21:41:50;100921.59;;;14.57;43.87
43257;BME280;28860;43.212;27.934;2023-04-06T21:44:15;100884.94;;;14.41;43.65
43257;BME280;28860;43.212;27.934;2023-04-06T22:02:28;100918.34;;;14.52;43.97
43257;BME280;28860;43.212;27.934;2023-04-06T22:04:53;100928.31;;;14.51;44.00
43257;BME280;28860;43.212;27.934;2023-04-06T22:07:19;100925.59;;;14.51;44.07
43257;BME280;28860;43.212;27.934;2023-04-06T22:09:44;100933.72;;;14.51;43.98
43257;BME280;28860;43.212;27.934;2023-04-06T22:12:14;100931.00;;;14.51;44.04
43257;BME280;28860;43.212;27.934;2023-04-06T22:14:40;100924.41;;;14.55;43.93
43257;BME280;28860;43.212;27.934;2023-04-06T22:17:06;100934.97;;;14.58;44.20
43257;BME280;28860;43.212;27.934;2023-04-06T22:19:31;100931.75;;;14.53;43.96
43257;BME280;28860;43.212;27.934;2023-04-06T22:21:59;100925.28;;;14.43;44.73
43257;BME280;28860;43.212;27.934;2023-04-06T22:24:25;100944.03;;;14.57;44.73
43257;BME280;28860;43.212;27.934;2023-04-06T22:26:50;100944.03;;;14.57;44.70
43257;BME280;28860;43.212;27.934;2023-04-06T22:29:16;100928.31;;;14.51;44.83
43257;BME280;28860;43.212;27.934;2023-04-06T22:31:41;100940.16;;;14.62;44.58
43257;BME280;28860;43.212;27.934;2023-04-06T22:34:07;100931.09;;;14.50;44.13
43257;BME280;28860;43.212;27.934;2023-04-06T22:36:32;100939.50;;;14.58;43.96
43257;BME280;28860;43.212;27.934;2023-04-06T22:38:58;100923.75;;;14.52;42.15
43257;BME280;28860;43.212;27.934;2023-04-06T22:41:24;100938.63;;;14.57;40.78
43257;BME280;28860;43.212;27.934;2023-04-06T22:43:50;100942.72;;;14.63;40.30
43257;BME280;28860;43.212;27.934;2023-04-06T22:46:16;100946.31;;;14.64;39.59
43257;BME280;28860;43.212;27.934;2023-04-06T22:48:41;100939.03;;;14.64;39.22
43257;BME280;28860;43.212;27.934;2023-04-06T22:51:07;100942.31;;;14.56;39.41
43257;BME280;28860;43.212;27.934;2023-04-06T22:53:33;100930.69;;;14.43;39.80
43257;BME280;28860;43.212;27.934;2023-04-06T22:55:58;100935.44;;;14.52;40.28
43257;BME280;28860;43.212;27.934;2023-04-06T22:58:24;100939.34;;;14.48;40.78
43257;BME280;28860;43.212;27.934;2023-04-06T23:00:49;100928.78;;;14.45;40.93
43257;BME280;28860;43.212;27.934;2023-04-06T23:03:15;100942.13;;;14.60;40.91
43257;BME280;28860;43.212;27.934;2023-04-06T23:05:41;100946.13;;;14.41;41.53
43257;BME280;28860;43.212;27.934;2023-04-06T23:08:06;100938.47;;;14.48;41.82
43257;BME280;28860;43.212;27.934;2023-04-06T23:10:32;100937.06;;;14.42;41.60
43257;BME280;28860;43.212;27.934;2023-04-06T23:12:57;100943.22;;;14.44;40.67
43257;BME280;28860;43.212;27.934;2023-04-06T23:15:23;100913.91;;;14.26;40.61
43257;BME280;28860;43.212;27.934;2023-04-06T23:17:49;100932.13;;;14.36;40.57
43257;BME280;28860;43.212;27.934;2023-04-06T23:20:15;100916.59;;;14.26;40.84
43257;BME280;28860;43.212;27.934;2023-04-06T23:22:41;100918.47;;;14.26;40.67
43257;BME280;28860;43.212;27.934;2023-04-06T23:25:07;100935.16;;;14.31;40.32
43257;BME280;28860;43.212;27.934;2023-04-06T23:27:33;100928.59;;;14.22;39.61
43257;BME280;28860;43.212;27.934;2023-04-06T23:29:58;100936.38;;;14.14;37.92
43257;BME280;28860;43.212;27.934;2023-04-06T23:32:24;100925.06;;;14.09;36.30
43257;BME280;28860;43.212;27.934;2023-04-06T23:34:50;100921.72;;;14.05;35.80
43257;BME280;28860;43.212;27.934;2023-04-06T23:37:15;100903.84;;;13.91;34.97
43257;BME280;28860;43.212;27.934;2023-04-06T23:39:41;100961.84;;;13.84;33.76
43257;BME280;28860;43.212;27.934;2023-04-06T23:42:08;100914.97;;;13.73;33.82
43257;BME280;28860;43.212;27.934;2023-04-06T23:44:34;100931.03;;;13.88;33.41
43257;BME280;28860;43.212;27.934;2023-04-06T23:47:03;100928.09;;;13.91;33.35
43257;BME280;28860;43.212;27.934;2023-04-06T23:49:29;100930.91;;;14.03;32.93
43257;BME280;28860;43.212;27.934;2023-04-06T23:51:55;100932.06;;;13.98;32.84
43257;BME280;28860;43.212;27.934;2023-04-06T23:54:20;100941.69;;;14.03;32.73
43257;BME280;28860;43.212;27.934;2023-04-06T23:56:46;100932.50;;;14.05;32.57
43257;BME280;28860;43.212;27.934;2023-04-06T23:59:12;100928.22;;;13.77;32.70
